Time;durP1;ratioP1;P1;durP2;ratioP2;P2;SDS_P1;SDS_P2;PMS_P1;PMS_P2;Temp;Humidity;BMP_temperature;BMP_pressure;BME280_temperature;BME280_humidity;BME280_pressure;Samples;Min_cycle;Max_cycle;Signal;HPM_P1;HPM_P2
2022/10/22 00:02:06;;;;;;;;;;;12.60;99.90;;;;;;6303777;22;20013;-50
2022/10/22 00:04:32;;;;;;;;;;;12.60;99.90;;;;;;6332170;22;20178;-52
2022/10/22 00:06:58;;;;;;;;;;;12.70;99.90;;;;;;6331465;22;19921;-52
2022/10/22 00:09:24;;;;;;;;;;;12.50;99.90;;;;;;6331205;22;19925;-50
2022/10/22 00:11:49;;;;;;;;;;;12.60;99.90;;;;;;6331578;22;19973;-52
2022/10/22 00:14:15;;;;;;;;;;;12.50;99.90;;;;;;6303400;22;19972;-52
2022/10/22 00:16:41;;;;;;;;;;;12.50;99.90;;;;;;6331279;22;19923;-52
2022/10/22 00:19:08;;;;;;;;;;;12.60;99.90;;;;;;6331420;22;20084;-51
2022/10/22 00:21:34;;;;;;;;;;;12.60;99.90;;;;;;6331674;22;19972;-52
2022/10/22 00:24:00;;;;;;;;;;;12.60;99.90;;;;;;6331360;22;20313;-51
2022/10/22 00:26:26;;;;;;;;;;;12.60;99.90;;;;;;6331598;22;19976;-53
2022/10/22 00:28:52;;;;;;;;;;;12.50;99.90;;;;;;6331733;22;19915;-49
2022/10/22 00:31:18;;;;;;;;;;;12.60;99.90;;;;;;6330949;22;19914;-50
2022/10/22 00:33:45;;;;;;;;;;;12.60;99.90;;;;;;6331671;22;20314;-53
2022/10/22 00:36:11;;;;;;;;;;;12.60;99.90;;;;;;6303942;22;19922;-50
2022/10/22 00:38:37;;;;;;;;;;;12.50;99.90;;;;;;6330932;22;19919;-51
2022/10/22 00:41:03;;;;;;;;;;;12.50;99.90;;;;;;6330930;22;19925;-51
2022/10/22 00:43:28;;;;;;;;;;;12.50;99.90;;;;;;6331663;22;19918;-52
2022/10/22 00:45:54;;;;;;;;;;;12.50;99.90;;;;;;6303233;22;20534;-53
2022/10/22 00:48:28;;;;;;;;;;;12.60;99.90;;;;;;6331412;22;20224;-53
2022/10/22 00:50:55;;;;;;;;;;;12.40;99.90;;;;;;6331511;22;19949;-51
2022/10/22 00:53:23;;;;;;;;;;;12.50;99.90;;;;;;6331479;22;19918;-51
2022/10/22 00:55:50;;;;;;;;;;;12.50;99.90;;;;;;6329534;22;19927;-52
2022/10/22 00:58:16;;;;;;;;;;;12.50;99.90;;;;;;6331204;22;19918;-53
2022/10/22 01:00:42;;;;;;;;;;;12.50;99.90;;;;;;6331120;22;19922;-51
2022/10/22 01:03:08;;;;;;;;;;;12.50;99.90;;;;;;6330952;22;20357;-53
2022/10/22 01:05:54;;;;;;;;;;;12.50;99.90;;;;;;6330064;22;20373;-51
2022/10/22 01:08:40;;;;;;;;;;;12.40;99.90;;;;;;6330508;22;19919;-54
2022/10/22 01:11:12;;;;;;;;;;;12.40;99.90;;;;;;6330195;22;20002;-53
2022/10/22 01:13:47;;;;;;;;;;;12.40;99.90;;;;;;6302097;22;19926;-52
2022/10/22 01:16:48;;;;;;;;;;;12.50;99.90;;;;;;6330034;22;20361;-50
2022/10/22 01:19:24;;;;;;;;;;;12.40;99.90;;;;;;6172967;23;19916;-52
2022/10/22 01:21:54;;;;;;;;;;;12.50;99.90;;;;;;6309485;22;19926;-51
2022/10/22 01:24:29;;;;;;;;;;;12.40;99.90;;;;;;6331500;22;19919;-52
2022/10/22 01:27:13;;;;;;;;;;;12.50;99.90;;;;;;6302971;22;20315;-52
2022/10/22 01:29:51;;;;;;;;;;;12.40;99.90;;;;;;6330900;22;19925;-52
2022/10/22 01:32:19;;;;;;;;;;;12.40;99.90;;;;;;6330823;22;19922;-50
2022/10/22 01:34:48;;;;;;;;;;;12.50;99.90;;;;;;6302560;22;19918;-52
2022/10/22 01:37:14;;;;;;;;;;;12.50;99.90;;;;;;6329016;22;20504;-52
2022/10/22 01:39:42;;;;;;;;;;;12.50;99.90;;;;;;6301739;22;19989;-50
2022/10/22 01:42:10;;;;;;;;;;;12.50;99.90;;;;;;6331710;22;19921;-53
2022/10/22 01:44:36;;;;;;;;;;;12.50;99.90;;;;;;6333227;22;19914;-49
2022/10/22 01:47:02;;;;;;;;;;;12.50;99.90;;;;;;6305389;22;19940;-52
2022/10/22 01:49:43;;;;;;;;;;;12.50;99.90;;;;;;6333092;22;19919;-50
2022/10/22 01:52:21;;;;;;;;;;;12.40;99.90;;;;;;6332746;22;20313;-52
2022/10/22 01:54:56;;;;;;;;;;;12.40;99.90;;;;;;6333072;22;19915;-49
2022/10/22 01:57:28;;;;;;;;;;;12.30;99.90;;;;;;6333244;22;19919;-50
2022/10/22 02:00:00;;;;;;;;;;;12.40;99.90;;;;;;6333108;22;19989;-51
2022/10/22 02:02:44;;;;;;;;;;;12.40;99.90;;;;;;6332834;22;19915;-52
2022/10/22 02:08:34;;;;;;;;;;;12.40;99.90;;;;;;6329329;22;19975;-50
2022/10/22 02:11:00;;;;;;;;;;;12.40;99.90;;;;;;6332641;22;20167;-52
2022/10/22 02:13:29;;;;;;;;;;;12.50;99.90;;;;;;6333117;22;19919;-52
2022/10/22 02:15:56;;;;;;;;;;;12.40;99.90;;;;;;6331724;22;19922;-50
2022/10/22 02:18:24;;;;;;;;;;;12.40;99.90;;;;;;6331667;22;19915;-49
2022/10/22 02:20:51;;;;;;;;;;;12.50;99.90;;;;;;6332534;22;19938;-51
2022/10/22 02:23:16;;;;;;;;;;;12.50;99.90;;;;;;6278457;22;19986;-50
2022/10/22 02:25:46;;;;;;;;;;;12.50;99.90;;;;;;6304649;22;19918;-53
2022/10/22 02:28:15;;;;;;;;;;;12.40;99.90;;;;;;6304536;22;20379;-50
2022/10/22 02:30:43;;;;;;;;;;;12.40;99.90;;;;;;6331977;22;19918;-52
2022/10/22 02:33:15;;;;;;;;;;;12.40;99.90;;;;;;6332951;22;19946;-50
2022/10/22 02:35:41;;;;;;;;;;;12.30;99.90;;;;;;6332328;22;19918;-51
2022/10/22 02:38:08;;;;;;;;;;;12.30;99.90;;;;;;6332221;22;19914;-52
2022/10/22 02:40:34;;;;;;;;;;;12.30;99.90;;;;;;6304774;22;20535;-51
2022/10/22 02:43:02;;;;;;;;;;;12.20;99.90;;;;;;6331865;22;19918;-51
2022/10/22 02:45:28;;;;;;;;;;;12.20;99.90;;;;;;6304552;22;19922;-51
2022/10/22 02:47:54;;;;;;;;;;;12.30;99.90;;;;;;6332042;22;19915;-54
2022/10/22 02:50:19;;;;;;;;;;;12.40;99.90;;;;;;6331835;22;20309;-51
2022/10/22 02:52:45;;;;;;;;;;;12.40;99.90;;;;;;6332466;22;19926;-51
2022/10/22 02:55:11;;;;;;;;;;;12.40;99.90;;;;;;6331687;22;19968;-51
2022/10/22 02:57:37;;;;;;;;;;;12.40;99.90;;;;;;6331616;22;19991;-52
2022/10/22 03:00:04;;;;;;;;;;;12.40;99.90;;;;;;6331414;22;19991;-51
2022/10/22 03:02:29;;;;;;;;;;;12.40;99.90;;;;;;6331423;22;19922;-52
2022/10/22 03:04:55;;;;;;;;;;;12.40;99.90;;;;;;6330975;22;19943;-51
2022/10/22 03:07:21;;;;;;;;;;;12.30;99.90;;;;;;6332271;22;19919;-52
2022/10/22 03:09:46;;;;;;;;;;;12.30;99.90;;;;;;6331898;22;19918;-52
2022/10/22 03:12:13;;;;;;;;;;;12.40;99.90;;;;;;6303590;22;20432;-52
2022/10/22 03:14:39;;;;;;;;;;;12.40;99.90;;;;;;6302354;22;19922;-51
2022/10/22 03:17:04;;;;;;;;;;;12.40;99.90;;;;;;6303224;22;19976;-50
2022/10/22 03:19:30;;;;;;;;;;;12.40;99.90;;;;;;6331556;22;19925;-53
2022/10/22 03:21:58;;;;;;;;;;;12.30;99.90;;;;;;6304233;22;19922;-52
2022/10/22 03:24:34;;;;;;;;;;;12.30;99.90;;;;;;6331576;22;19941;-51
2022/10/22 03:27:00;;;;;;;;;;;12.30;99.90;;;;;;6330477;22;20351;-52
2022/10/22 03:29:26;;;;;;;;;;;12.40;99.90;;;;;;6331370;22;19942;-51
2022/10/22 03:31:53;;;;;;;;;;;12.30;99.90;;;;;;6331776;22;20296;-55
2022/10/22 03:34:18;;;;;;;;;;;12.30;99.90;;;;;;6304111;22;19918;-50
2022/10/22 03:36:44;;;;;;;;;;;12.30;99.90;;;;;;6332417;22;20393;-53
2022/10/22 03:39:12;;;;;;;;;;;12.30;99.90;;;;;;6332062;22;19942;-55
2022/10/22 03:41:37;;;;;;;;;;;12.30;99.90;;;;;;6331909;22;19928;-51
2022/10/22 03:44:04;;;;;;;;;;;12.20;99.90;;;;;;6332174;22;19993;-50
2022/10/22 03:46:29;;;;;;;;;;;12.20;99.90;;;;;;6331595;22;19919;-54
2022/10/22 03:48:55;;;;;;;;;;;12.30;99.90;;;;;;6331752;22;19964;-49
2022/10/22 03:51:22;;;;;;;;;;;12.20;99.90;;;;;;6331618;22;20336;-52
2022/10/22 03:53:48;;;;;;;;;;;12.20;99.90;;;;;;6332433;22;19914;-53
2022/10/22 03:56:13;;;;;;;;;;;12.30;99.90;;;;;;6304039;22;19919;-51
2022/10/22 03:58:39;;;;;;;;;;;12.20;99.90;;;;;;6332086;22;20021;-51
2022/10/22 04:01:10;;;;;;;;;;;12.20;99.90;;;;;;6331412;22;19993;-51
2022/10/22 04:03:36;;;;;;;;;;;12.20;99.90;;;;;;6330887;22;19976;-52
2022/10/22 04:06:03;;;;;;;;;;;12.20;99.90;;;;;;6331725;22;19972;-51
2022/10/22 04:08:29;;;;;;;;;;;12.20;99.90;;;;;;6331714;22;19923;-51
2022/10/22 04:10:55;;;;;;;;;;;12.10;99.90;;;;;;6331753;22;20408;-52
2022/10/22 04:13:20;;;;;;;;;;;12.10;99.90;;;;;;6332110;22;19981;-52
2022/10/22 04:15:47;;;;;;;;;;;12.20;99.90;;;;;;6330267;22;19919;-53
2022/10/22 04:18:13;;;;;;;;;;;12.20;99.90;;;;;;6303943;22;19954;-53
2022/10/22 04:20:40;;;;;;;;;;;12.20;99.90;;;;;;6303524;22;20029;-53
2022/10/22 04:23:06;;;;;;;;;;;12.10;99.90;;;;;;6331958;22;19950;-54
2022/10/22 04:25:32;;;;;;;;;;;12.20;99.90;;;;;;6331620;22;19921;-52
2022/10/22 04:27:57;;;;;;;;;;;12.00;99.90;;;;;;6304059;22;20008;-53
2022/10/22 04:30:23;;;;;;;;;;;12.20;99.90;;;;;;6331171;22;19927;-53
2022/10/22 04:32:49;;;;;;;;;;;12.10;99.90;;;;;;6331717;22;20463;-53
2022/10/22 04:35:14;;;;;;;;;;;12.10;99.90;;;;;;6331658;22;19918;-53
2022/10/22 04:37:40;;;;;;;;;;;12.10;99.90;;;;;;6303913;22;19914;-53
2022/10/22 04:40:06;;;;;;;;;;;12.10;99.90;;;;;;6331898;22;19965;-52
2022/10/22 04:42:32;;;;;;;;;;;12.10;99.90;;;;;;6303378;22;19914;-52
2022/10/22 04:44:58;;;;;;;;;;;12.10;99.90;;;;;;6331298;22;19926;-51
2022/10/22 04:47:23;;;;;;;;;;;12.00;99.90;;;;;;6332128;22;19997;-50
2022/10/22 04:49:49;;;;;;;;;;;12.10;99.90;;;;;;6330908;22;19968;-49
2022/10/22 04:52:15;;;;;;;;;;;12.00;99.90;;;;;;6330776;22;19922;-52
2022/10/22 04:54:40;;;;;;;;;;;12.10;99.90;;;;;;6331058;22;19996;-52
2022/10/22 04:57:06;;;;;;;;;;;12.10;99.90;;;;;;6303708;22;19997;-52
2022/10/22 04:59:32;;;;;;;;;;;12.00;99.90;;;;;;6329521;22;19919;-49
2022/10/22 05:01:57;;;;;;;;;;;12.10;99.90;;;;;;6330556;22;19918;-50
2022/10/22 05:04:23;;;;;;;;;;;12.10;99.90;;;;;;6330625;22;19918;-51
2022/10/22 05:06:49;;;;;;;;;;;12.00;99.90;;;;;;6330674;22;19915;-52
2022/10/22 05:09:16;;;;;;;;;;;12.00;99.90;;;;;;6330937;22;19926;-53
2022/10/22 05:11:45;;;;;;;;;;;12.00;99.90;;;;;;6331959;22;19921;-48
2022/10/22 05:14:11;;;;;;;;;;;12.10;99.90;;;;;;6330623;22;20005;-51
2022/10/22 05:16:37;;;;;;;;;;;12.10;99.90;;;;;;6331250;22;20001;-53
2022/10/22 05:19:04;;;;;;;;;;;12.10;99.90;;;;;;6305504;22;20384;-51
2022/10/22 05:21:29;;;;;;;;;;;12.20;99.90;;;;;;6305391;22;19926;-53
2022/10/22 05:23:56;;;;;;;;;;;12.20;99.90;;;;;;6333198;22;19918;-50
2022/10/22 05:26:22;;;;;;;;;;;12.00;99.90;;;;;;6304710;22;19914;-52
2022/10/22 05:28:48;;;;;;;;;;;12.00;99.90;;;;;;6331250;22;19921;-54
2022/10/22 05:31:15;;;;;;;;;;;12.00;99.90;;;;;;6331961;22;20381;-52
2022/10/22 05:33:41;;;;;;;;;;;12.00;99.90;;;;;;6305605;22;19927;-49
2022/10/22 05:36:08;;;;;;;;;;;12.20;99.90;;;;;;6331822;22;20194;-52
2022/10/22 05:38:33;;;;;;;;;;;12.10;99.90;;;;;;6304070;22;19930;-53
2022/10/22 05:41:04;;;;;;;;;;;12.10;99.90;;;;;;6331625;22;19914;-48
2022/10/22 05:43:30;;;;;;;;;;;12.00;99.90;;;;;;6331755;22;20279;-51
2022/10/22 05:46:00;;;;;;;;;;;12.00;99.90;;;;;;6304250;22;19914;-49
2022/10/22 05:48:25;;;;;;;;;;;12.00;99.90;;;;;;6304399;22;19918;-50
2022/10/22 05:50:51;;;;;;;;;;;12.00;99.90;;;;;;6332130;22;20063;-53
2022/10/22 05:53:18;;;;;;;;;;;12.10;99.90;;;;;;6332154;22;19914;-49
2022/10/22 05:55:44;;;;;;;;;;;12.00;99.90;;;;;;6332156;22;19921;-53
2022/10/22 05:58:11;;;;;;;;;;;12.10;99.90;;;;;;6331615;22;20107;-50
2022/10/22 06:00:36;;;;;;;;;;;12.00;99.90;;;;;;6303214;22;19919;-50
2022/10/22 06:03:02;;;;;;;;;;;12.00;99.90;;;;;;6332459;22;19921;-54
2022/10/22 06:05:28;;;;;;;;;;;12.10;99.90;;;;;;6331678;22;19962;-50
2022/10/22 06:07:54;;;;;;;;;;;12.00;99.90;;;;;;6332199;22;19990;-52
2022/10/22 06:10:20;;;;;;;;;;;12.10;99.90;;;;;;6331821;22;19982;-51
2022/10/22 06:12:47;;;;;;;;;;;12.10;99.90;;;;;;6332380;22;20297;-50
2022/10/22 06:15:14;;;;;;;;;;;12.10;99.90;;;;;;6330995;22;19918;-50
2022/10/22 06:17:40;;;;;;;;;;;12.20;99.90;;;;;;6331926;22;19922;-54
2022/10/22 06:20:06;;;;;;;;;;;12.20;99.90;;;;;;6331808;22;19918;-52
2022/10/22 06:22:32;;;;;;;;;;;12.20;99.90;;;;;;6331383;22;20006;-50
2022/10/22 06:25:03;;;;;;;;;;;12.20;99.90;;;;;;6332157;22;19914;-52
2022/10/22 06:27:29;;;;;;;;;;;12.30;99.90;;;;;;6330386;22;20358;-55
2022/10/22 06:29:55;;;;;;;;;;;12.30;99.90;;;;;;6330361;22;19919;-49
2022/10/22 06:32:22;;;;;;;;;;;12.50;99.90;;;;;;6303557;22;19989;-49
2022/10/22 06:34:49;;;;;;;;;;;12.40;99.90;;;;;;6331434;22;19994;-47
2022/10/22 06:37:18;;;;;;;;;;;12.40;99.90;;;;;;6331793;22;19926;-48
2022/10/22 06:39:43;;;;;;;;;;;12.50;99.90;;;;;;6331833;22;19919;-49
2022/10/22 06:42:10;;;;;;;;;;;12.50;99.90;;;;;;6331886;22;19925;-49
2022/10/22 06:44:36;;;;;;;;;;;12.40;99.90;;;;;;6331379;22;19954;-50
2022/10/22 06:47:01;;;;;;;;;;;12.50;99.90;;;;;;6303964;22;19925;-48
2022/10/22 06:49:27;;;;;;;;;;;12.50;99.90;;;;;;6331670;22;19929;-49
2022/10/22 06:51:53;;;;;;;;;;;12.40;99.90;;;;;;6331570;22;20088;-49
2022/10/22 06:54:19;;;;;;;;;;;12.60;99.90;;;;;;6331279;22;20011;-48
2022/10/22 06:56:45;;;;;;;;;;;12.50;99.90;;;;;;6331629;22;19922;-48
2022/10/22 06:59:11;;;;;;;;;;;12.50;99.90;;;;;;6331414;22;19965;-49
2022/10/22 07:01:37;;;;;;;;;;;12.60;99.90;;;;;;6331831;22;19915;-48
2022/10/22 07:04:03;;;;;;;;;;;12.60;99.90;;;;;;6331552;22;19919;-52
2022/10/22 07:06:29;;;;;;;;;;;12.70;99.90;;;;;;6331804;22;20283;-48
2022/10/22 07:08:55;;;;;;;;;;;;;;;;;;6331467;22;19919;-50
2022/10/22 07:11:22;;;;;;;;;;;12.70;99.90;;;;;;6331189;22;19918;-49
2022/10/22 07:13:48;;;;;;;;;;;12.80;99.90;;;;;;6330641;22;19986;-48
2022/10/22 07:16:15;;;;;;;;;;;13.00;99.90;;;;;;6331258;22;19999;-49
2022/10/22 07:18:42;;;;;;;;;;;13.00;99.90;;;;;;6331299;22;19919;-51
2022/10/22 07:21:08;;;;;;;;;;;13.00;99.90;;;;;;6328978;22;19923;-52
2022/10/22 07:23:34;;;;;;;;;;;13.10;99.90;;;;;;6328838;22;19937;-49
2022/10/22 07:26:01;;;;;;;;;;;13.20;99.90;;;;;;6300667;22;19918;-49
2022/10/22 07:28:27;;;;;;;;;;;13.30;99.90;;;;;;6326182;22;20270;-49
2022/10/22 07:30:53;;;;;;;;;;;13.30;99.90;;;;;;6328958;22;20382;-48
2022/10/22 07:33:18;;;;;;;;;;;13.30;99.90;;;;;;6330448;22;19919;-49
2022/10/22 07:35:49;;;;;;;;;;;13.40;99.90;;;;;;6301240;22;19919;-48
2022/10/22 07:38:15;;;;;;;;;;;13.40;99.90;;;;;;6299886;22;19926;-48
2022/10/22 07:40:40;;;;;;;;;;;13.30;99.90;;;;;;6275256;22;19919;-53
2022/10/22 07:43:06;;;;;;;;;;;13.40;99.90;;;;;;6328151;22;19982;-48
2022/10/22 07:45:32;;;;;;;;;;;13.40;99.90;;;;;;6327590;22;19951;-49
2022/10/22 07:47:59;;;;;;;;;;;13.40;99.90;;;;;;6328483;22;19914;-52
2022/10/22 07:50:25;;;;;;;;;;;13.50;99.90;;;;;;6328659;22;19942;-51
2022/10/22 07:52:51;;;;;;;;;;;13.50;99.90;;;;;;6301643;22;19925;-50
2022/10/22 07:55:18;;;;;;;;;;;13.50;99.90;;;;;;6328123;22;19915;-49
2022/10/22 07:57:44;;;;;;;;;;;;;;;;;;6328944;22;19922;-53
2022/10/22 08:00:10;;;;;;;;;;;13.60;99.90;;;;;;6327234;22;19949;-50
2022/10/22 08:02:35;;;;;;;;;;;13.60;99.90;;;;;;6325019;22;19984;-51
2022/10/22 08:05:01;;;;;;;;;;;13.60;99.90;;;;;;6324832;22;19919;-52
2022/10/22 08:07:26;;;;;;;;;;;13.70;99.90;;;;;;6298315;22;19919;-51
2022/10/22 08:09:52;;;;;;;;;;;13.70;99.90;;;;;;6323192;22;19925;-49
2022/10/22 08:12:19;;;;;;;;;;;13.70;99.90;;;;;;6326637;22;20123;-49
2022/10/22 08:14:44;;;;;;;;;;;13.70;99.90;;;;;;6326874;22;20023;-53
2022/10/22 08:17:10;;;;;;;;;;;13.60;99.90;;;;;;6329949;22;19962;-49
2022/10/22 08:19:36;;;;;;;;;;;13.70;99.90;;;;;;6330582;22;19915;-49
2022/10/22 08:22:03;;;;;;;;;;;13.80;99.90;;;;;;6330134;22;19918;-50
2022/10/22 08:24:29;;;;;;;;;;;13.80;99.90;;;;;;6302290;22;19925;-50
2022/10/22 08:26:55;;;;;;;;;;;13.70;99.90;;;;;;6330340;22;20291;-53
2022/10/22 08:29:25;;;;;;;;;;;13.70;99.90;;;;;;6301924;22;20477;-49
2022/10/22 08:31:51;;;;;;;;;;;13.70;99.90;;;;;;6328180;22;20612;-53
2022/10/22 08:34:17;;;;;;;;;;;13.80;99.90;;;;;;6329045;22;19915;-48
2022/10/22 08:36:43;;;;;;;;;;;13.80;99.90;;;;;;6301165;22;19918;-49
2022/10/22 08:39:09;;;;;;;;;;;13.80;99.90;;;;;;6329608;22;19923;-49
2022/10/22 08:41:43;;;;;;;;;;;13.80;99.90;;;;;;6328150;22;19922;-52
2022/10/22 08:44:27;;;;;;;;;;;13.80;99.90;;;;;;6329857;22;20010;-50
